Deunquat, Ohio
Current Conditions -  °F | °C
As of 11:53 PM on Saturday 25 Oct 2014 (Local Time) from KMNN Reporting Station
Clear Clear  
Wind Chill: 53°   Ceiling: Unl
Heat Index: 53°   Visibility: 10mi
Dew Point: 34°   Wind: 7mph
Humidity: 48%   Direction: 290°WNW
Pressure: 29.88"   Gusts: NA
Location:  40.948°N, 83.1346°W
Report Text: KMNN 260353Z AUTO 29006KT 10SM CLR 12/01 A2988 RMK AO2 SLP117 T01170011 TSNO
Loading
Personal Weather Stations






























Interactive Weather Map
Tropical Storm Tracking
New forecast layout! Learn more

10-Day Weather Forecast

Advertisements
Track Severe Weather on mobile